createdAt,value
2022-09-13T00:01:23.433Z,98683.25
2022-09-13T00:03:52.232Z,98682.25
2022-09-13T00:06:22.148Z,98674.09
2022-09-13T00:08:51.195Z,98675.09
2022-09-13T00:11:25.615Z,98674.25
2022-09-13T00:13:56.062Z,98665.63
2022-09-13T00:16:27.625Z,98666.44
2022-09-13T00:18:57.514Z,98667.53
2022-09-13T00:21:27.911Z,98660.53
2022-09-13T00:23:57.033Z,98666.44
2022-09-13T00:26:31.362Z,98662.97
2022-09-13T00:29:00.748Z,98660.44
2022-09-13T00:31:30.356Z,98648.88
2022-09-13T00:34:01.294Z,98649.97
2022-09-13T00:36:30.763Z,98641.91
2022-09-13T00:39:01.106Z,98636.25
2022-09-13T00:41:31.292Z,98637.28
2022-09-13T00:44:03.133Z,98631.94
2022-09-13T00:46:40.012Z,98624.97
2022-09-13T00:49:19.788Z,98619.81
2022-09-13T00:51:54.107Z,98622.72
2022-09-13T00:54:28.367Z,98613.09
2022-09-13T00:57:03.062Z,98617.38
2022-09-13T00:59:39.503Z,98617.88
2022-09-13T01:02:09.242Z,98615.47
2022-09-13T01:04:40.433Z,98616.84
2022-09-13T01:07:14.745Z,98608.75
2022-09-13T01:09:50.162Z,98606.06
2022-09-13T01:12:38.646Z,98600.09
2022-09-13T01:15:09.044Z,98605.44
2022-09-13T01:17:40.392Z,98602.50
2022-09-13T01:20:12.484Z,98590.44
2022-09-13T01:23:55.851Z,98595.25
2022-09-13T01:27:12.350Z,98587.78
2022-09-13T01:30:16.065Z,98579.16
2022-09-13T01:33:14.019Z,98580.72
2022-09-13T01:36:07.188Z,98573.41
2022-09-13T01:38:53.500Z,98579.91
2022-09-13T01:42:01.647Z,98575.81
2022-09-13T01:44:56.276Z,98568.00
2022-09-13T01:47:34.065Z,98565.31
2022-09-13T01:50:19.858Z,98568.25
2022-09-13T01:52:57.486Z,98570.91
2022-09-13T01:55:35.751Z,98561.50
2022-09-13T01:58:21.973Z,98554.78
2022-09-13T02:01:03.356Z,98553.97
2022-09-13T02:03:41.149Z,98554.28
2022-09-13T02:06:16.924Z,98546.50
2022-09-13T02:08:49.932Z,98547.81
2022-09-13T02:11:21.037Z,98537.06
2022-09-13T02:13:59.908Z,98541.94
2022-09-13T02:16:34.351Z,98542.44
2022-09-13T02:19:15.392Z,98548.34
2022-09-13T02:21:50.839Z,98553.13
2022-09-13T02:24:26.392Z,98541.34
2022-09-13T02:26:59.794Z,98540.50
2022-09-13T02:29:32.176Z,98546.66
2022-09-13T02:32:10.546Z,98547.75
2022-09-13T02:34:45.538Z,98543.47
2022-09-13T02:37:15.121Z,98544.63
2022-09-13T02:39:55.545Z,98542.97
2022-09-13T02:42:31.999Z,98537.34
2022-09-13T02:45:01.311Z,98538.09
2022-09-13T02:47:44.805Z,98542.38
2022-09-13T02:50:35.370Z,98539.72
2022-09-13T02:53:13.801Z,98545.59
2022-09-13T02:55:55.201Z,98542.91
2022-09-13T02:58:34.854Z,98536.22
2022-09-13T03:01:04.010Z,98529.50
2022-09-13T03:03:32.821Z,98528.91
2022-09-13T03:06:03.072Z,98532.69
2022-09-13T03:08:32.363Z,98523.00
2022-09-13T03:11:20.582Z,98519.81
2022-09-13T03:14:19.912Z,98525.75
2022-09-13T03:17:15.041Z,98512.34
2022-09-13T03:20:18.568Z,98508.06
2022-09-13T03:23:31.106Z,98504.25
2022-09-13T03:26:28.730Z,98501.25
2022-09-13T03:29:17.215Z,98501.03
2022-09-13T03:32:00.257Z,98496.47
2022-09-13T03:34:39.676Z,98492.50
2022-09-13T03:37:18.724Z,98489.75
2022-09-13T03:39:58.129Z,98481.72
2022-09-13T03:42:35.143Z,98475.25
2022-09-13T03:45:07.433Z,98477.72
2022-09-13T03:47:42.450Z,98485.78
2022-09-13T03:50:15.963Z,98479.03
2022-09-13T03:52:47.499Z,98476.91
2022-09-13T03:55:20.589Z,98474.19
2022-09-13T03:57:49.193Z,98477.41
2022-09-13T04:00:19.367Z,98484.97
2022-09-13T04:02:48.114Z,98486.00
2022-09-13T04:05:16.987Z,98488.69
2022-09-13T04:07:45.705Z,98489.53
2022-09-13T04:10:14.454Z,98483.09
2022-09-13T04:12:44.781Z,98478.53
2022-09-13T04:15:13.825Z,98485.50
2022-09-13T04:17:42.612Z,98482.28
2022-09-13T04:20:11.578Z,98484.16
2022-09-13T04:22:40.132Z,98482.28
2022-09-13T04:25:10.157Z,98486.09
2022-09-13T04:27:38.740Z,98479.59
2022-09-13T04:30:11.077Z,98480.63
2022-09-13T04:32:39.592Z,98481.22
2022-09-13T04:35:09.485Z,98486.00
2022-09-13T04:37:38.999Z,98488.69
2022-09-13T04:40:09.884Z,98486.31
2022-09-13T04:42:38.740Z,98489.81
2022-09-13T04:45:10.771Z,98479.59
2022-09-13T04:48:14.190Z,98488.22
2022-09-13T04:50:43.873Z,98480.97
2022-09-13T04:53:15.526Z,98478.03
2022-09-13T04:55:44.831Z,98479.38
2022-09-13T04:58:13.477Z,98479.38
2022-09-13T05:00:43.563Z,98475.34
2022-09-13T05:03:12.259Z,98469.47
2022-09-13T05:05:40.832Z,98479.09
2022-09-13T05:08:09.417Z,98478.84
2022-09-13T05:10:38.022Z,98476.47
2022-09-13T05:13:06.819Z,98472.47
2022-09-13T05:15:35.456Z,98467.09
2022-09-13T05:18:05.561Z,98465.75
2022-09-13T05:20:34.528Z,98464.16
2022-09-13T05:23:03.638Z,98465.25
2022-09-13T05:25:32.251Z,98464.72
2022-09-13T05:28:00.797Z,98460.44
2022-09-13T05:30:29.394Z,98459.94
2022-09-13T05:32:58.476Z,98459.41
2022-09-13T05:35:28.463Z,98451.88
2022-09-13T05:37:57.048Z,98453.00
2022-09-13T05:40:25.636Z,98452.50
2022-09-13T05:42:55.240Z,98453.06
2022-09-13T05:45:23.838Z,98454.69
2022-09-13T05:47:53.156Z,98440.47
2022-09-13T05:50:45.150Z,98430.53
2022-09-13T05:53:11.939Z,98428.41
2022-09-13T05:55:40.571Z,98424.13
2022-09-13T05:58:09.224Z,98428.66
2022-09-13T06:00:38.084Z,98419.28
2022-09-13T06:03:06.718Z,98428.69
2022-09-13T06:05:35.465Z,98422.00
2022-09-13T06:08:04.426Z,98424.94
2022-09-13T06:10:34.432Z,98416.66
2022-09-13T06:13:02.990Z,98419.66
2022-09-13T06:15:31.671Z,98419.41
2022-09-13T06:18:00.232Z,98407.56
2022-09-13T06:20:28.813Z,98419.41
2022-09-13T06:22:57.452Z,98403.00
2022-09-13T06:25:26.070Z,98408.38
2022-09-13T06:27:56.039Z,98405.94
2022-09-13T06:30:24.683Z,98404.84
2022-09-13T06:32:53.312Z,98408.06
2022-09-13T06:35:22.427Z,98412.66
2022-09-13T06:37:51.071Z,98418.03
2022-09-13T06:40:25.242Z,98408.31
2022-09-13T06:42:55.489Z,98413.69
2022-09-13T06:45:24.085Z,98419.88
2022-09-13T06:47:56.138Z,98416.66
2022-09-13T06:50:24.702Z,98418.81
2022-09-13T06:52:53.319Z,98413.41
2022-09-13T06:55:22.209Z,98409.31
2022-09-13T06:57:50.794Z,98414.41
2022-09-13T07:00:21.729Z,98408.94
2022-09-13T07:02:53.200Z,98406.47
2022-09-13T07:05:22.314Z,98406.94
2022-09-13T07:07:50.904Z,98406.06
2022-09-13T07:10:19.720Z,98398.44
2022-09-13T07:12:48.400Z,98389.25
2022-09-13T07:15:17.177Z,98386.00
2022-09-13T07:17:47.128Z,98380.56
2022-09-13T07:20:16.058Z,98382.66
2022-09-13T07:22:44.730Z,98383.97
2022-09-13T07:25:13.295Z,98391.19
2022-09-13T07:27:42.126Z,98394.63
2022-09-13T07:30:11.339Z,98392.06
2022-09-13T07:32:39.926Z,98401.09
2022-09-13T07:35:10.217Z,98395.59
2022-09-13T07:37:38.802Z,98393.91
2022-09-13T07:40:09.369Z,98397.13
2022-09-13T07:42:38.110Z,98390.66
2022-09-13T07:45:07.894Z,98394.47
2022-09-13T07:47:36.618Z,98397.75
2022-09-13T07:50:05.642Z,98397.22
2022-09-13T07:52:38.121Z,98395.09
2022-09-13T07:55:07.445Z,98391.84
2022-09-13T07:57:36.112Z,98398.91
2022-09-13T08:00:06.558Z,98400.75
2022-09-13T08:02:40.399Z,98399.97
2022-09-13T08:05:09.719Z,98401.06
2022-09-13T08:07:39.717Z,98405.94
2022-09-13T08:10:09.142Z,98415.66
2022-09-13T08:12:37.840Z,98413.25
2022-09-13T08:15:07.778Z,98406.50
2022-09-13T08:17:36.385Z,98420.00
2022-09-13T08:20:06.830Z,98417.31
2022-09-13T08:22:35.405Z,98421.66
2022-09-13T08:25:06.309Z,98414.84
2022-09-13T08:27:34.995Z,98429.63
2022-09-13T08:30:03.867Z,98420.38
2022-09-13T08:32:32.514Z,98434.94
2022-09-13T08:35:01.302Z,98437.06
2022-09-13T08:37:29.897Z,98436.00
2022-09-13T08:39:58.515Z,98431.41
2022-09-13T08:42:47.492Z,98426.00
2022-09-13T08:45:17.154Z,98424.66
2022-09-13T08:47:54.681Z,98425.75
2022-09-13T08:50:29.216Z,98430.59
2022-09-13T08:53:16.297Z,98422.69
2022-09-13T08:55:59.289Z,98423.16
2022-09-13T08:59:05.112Z,98413.34
2022-09-13T09:01:51.393Z,98414.59
2022-09-13T09:04:38.662Z,98415.03
2022-09-13T09:07:14.423Z,98414.38
2022-09-13T09:09:51.044Z,98413.22
2022-09-13T09:12:31.832Z,98412.91
2022-09-13T09:15:13.858Z,98409.91
2022-09-13T09:17:56.464Z,98406.59
2022-09-13T09:20:33.817Z,98401.41
2022-09-13T09:23:16.755Z,98397.53
2022-09-13T09:25:52.946Z,98398.78
2022-09-13T09:28:21.629Z,98388.69
2022-09-13T09:31:04.711Z,98390.47
2022-09-13T09:33:57.423Z,98394.09
2022-09-13T09:36:39.443Z,98383.69
2022-09-13T09:39:12.436Z,98371.69
2022-09-13T09:41:41.548Z,98374.75
2022-09-13T09:44:20.391Z,98374.59
2022-09-13T09:46:57.325Z,98372.63
2022-09-13T09:49:53.776Z,98368.22
2022-09-13T09:52:32.250Z,98361.81
2022-09-13T09:55:15.223Z,98356.22
2022-09-13T09:57:57.251Z,98355.22
2022-09-13T10:00:30.102Z,98344.97
2022-09-13T10:03:05.734Z,98345.19
2022-09-13T10:05:36.521Z,98344.38
2022-09-13T10:08:09.563Z,98342.59
2022-09-13T10:10:43.689Z,98332.53
2022-09-13T10:13:18.583Z,98334.66
2022-09-13T10:15:59.425Z,98331.81
2022-09-13T10:18:43.849Z,98330.63
2022-09-13T10:21:25.895Z,98326.34
2022-09-13T10:24:18.264Z,98328.44
2022-09-13T10:26:47.745Z,98326.06
2022-09-13T10:29:21.824Z,98315.88
2022-09-13T10:31:55.435Z,98314.53
2022-09-13T10:34:38.235Z,98316.31
2022-09-13T10:37:17.809Z,98310.63
2022-09-13T10:40:00.396Z,98304.44
2022-09-13T10:42:31.162Z,98311.19
2022-09-13T10:45:03.397Z,98310.84
2022-09-13T10:47:38.920Z,98296.91
2022-09-13T10:50:22.945Z,98292.72
2022-09-13T10:52:53.363Z,98289.38
2022-09-13T10:55:34.238Z,98299.28
2022-09-13T10:58:20.034Z,98296.91
2022-09-13T11:01:17.166Z,98297.41
2022-09-13T11:04:30.656Z,98296.13
2022-09-13T11:07:22.333Z,98291.06
2022-09-13T11:10:02.734Z,98289.38
2022-09-13T11:12:44.697Z,98279.81
2022-09-13T11:15:30.532Z,98288.59
2022-09-13T11:18:33.413Z,98286.06
2022-09-13T11:21:22.775Z,98283.94
2022-09-13T11:24:13.712Z,98287.53
2022-09-13T11:26:59.749Z,98284.97
2022-09-13T11:29:52.345Z,98279.88
2022-09-13T11:32:41.257Z,98276.88
2022-09-13T11:35:35.996Z,98268.97
2022-09-13T11:38:28.747Z,98275.03
2022-09-13T11:41:12.235Z,98281.66
2022-09-13T11:44:19.368Z,98274.59
2022-09-13T11:47:00.466Z,98288.91
2022-09-13T11:50:02.016Z,98283.56
2022-09-13T11:52:49.051Z,98269.84
2022-09-13T11:55:25.075Z,98275.72
2022-09-13T11:58:00.633Z,98277.16
2022-09-13T12:00:36.259Z,98269.41
2022-09-13T12:03:17.712Z,98263.97
2022-09-13T12:05:53.686Z,98262.28
2022-09-13T12:08:30.532Z,98260.78
2022-09-13T12:11:05.309Z,98253.19
2022-09-13T12:13:48.023Z,98265.63
2022-09-13T12:16:25.209Z,98260.81
2022-09-13T12:19:18.561Z,98251.94
2022-09-13T12:21:51.219Z,98256.72
2022-09-13T12:24:33.420Z,98262.81
2022-09-13T12:27:11.799Z,98249.00
2022-09-13T12:29:51.979Z,98245.97
2022-09-13T12:32:23.748Z,98247.09
2022-09-13T12:35:02.135Z,98242.25
2022-09-13T12:38:36.775Z,98244.75
2022-09-13T12:41:43.181Z,98237.19
2022-09-13T12:44:42.536Z,98238.06
2022-09-13T12:47:38.718Z,98228.22
2022-09-13T12:50:45.533Z,98231.69
2022-09-13T12:53:57.003Z,98223.03
2022-09-13T12:56:56.907Z,98219.16
2022-09-13T12:59:53.183Z,98226.16
2022-09-13T13:02:33.569Z,98212.25
2022-09-13T13:05:06.264Z,98218.50
2022-09-13T13:07:39.411Z,98215.44
2022-09-13T13:10:27.268Z,98215.59
2022-09-13T13:13:16.668Z,98211.72
2022-09-13T13:16:22.045Z,98210.19
2022-09-13T13:18:54.642Z,98209.06
2022-09-13T13:21:33.887Z,98210.09
2022-09-13T13:24:40.503Z,98208.50
2022-09-13T13:27:48.192Z,98219.41
2022-09-13T13:30:52.554Z,98223.00
2022-09-13T13:33:49.125Z,98223.44
2022-09-13T13:36:27.858Z,98227.22
2022-09-13T13:38:57.767Z,98217.63
2022-09-13T13:41:55.430Z,98213.75
2022-09-13T13:45:17.979Z,98205.31
2022-09-13T13:48:12.506Z,98204.75
2022-09-13T13:51:25.181Z,98204.53
2022-09-13T13:54:07.327Z,98198.56
2022-09-13T13:56:52.266Z,98198.16
2022-09-13T13:59:28.476Z,98196.78
2022-09-13T14:02:15.355Z,98190.97
2022-09-13T14:05:14.804Z,98193.91
2022-09-13T14:08:37.339Z,98195.66
2022-09-13T14:11:21.943Z,98191.09
2022-09-13T14:14:10.949Z,98194.13
2022-09-13T14:16:58.476Z,98186.44
2022-09-13T14:19:31.498Z,98193.06
2022-09-13T14:22:16.933Z,98187.28
2022-09-13T14:24:49.875Z,98178.44
2022-09-13T14:27:23.356Z,98177.13
2022-09-13T14:29:56.778Z,98182.63
2022-09-13T14:32:36.296Z,98178.16
2022-09-13T14:35:26.602Z,98178.88
2022-09-13T14:37:57.534Z,98179.09
2022-09-13T14:40:30.306Z,98180.88
2022-09-13T14:42:59.004Z,98179.63
2022-09-13T14:45:33.305Z,98183.34
2022-09-13T14:48:10.085Z,98180.94
2022-09-13T14:50:47.438Z,98183.44
2022-09-13T14:53:21.343Z,98173.38
2022-09-13T14:55:57.770Z,98174.50
2022-09-13T14:58:30.508Z,98164.72
2022-09-13T15:01:04.944Z,98174.69
2022-09-13T15:03:34.101Z,98164.44
2022-09-13T15:06:06.234Z,98158.19
2022-09-13T15:08:54.130Z,98165.56
2022-09-13T15:11:42.792Z,98162.81
2022-09-13T15:14:34.993Z,98175.47
2022-09-13T15:17:11.211Z,98169.69
2022-09-13T15:19:42.866Z,98170.97
2022-09-13T15:22:24.495Z,98173.38
2022-09-13T15:24:56.485Z,98167.91
2022-09-13T15:27:31.581Z,98171.78
2022-09-13T15:30:04.315Z,98174.50
2022-09-13T15:32:40.854Z,98176.78
2022-09-13T15:35:23.804Z,98178.38
2022-09-13T15:38:02.430Z,98175.19
2022-09-13T15:40:42.038Z,98178.25
2022-09-13T15:43:12.305Z,98169.13
2022-09-13T15:45:41.479Z,98176.34
2022-09-13T15:48:25.084Z,98175.88
2022-09-13T15:51:11.411Z,98169.81
2022-09-13T15:53:42.507Z,98166.63
2022-09-13T15:56:18.552Z,98162.59
2022-09-13T15:58:57.200Z,98168.38
2022-09-13T16:01:27.653Z,98175.94
2022-09-13T16:03:56.256Z,98174.34
2022-09-13T16:06:25.325Z,98165.38
2022-09-13T16:08:54.018Z,98168.25
2022-09-13T16:11:22.811Z,98171.31
2022-09-13T16:13:52.774Z,98165.88
2022-09-13T16:16:21.437Z,98164.28
2022-09-13T16:18:50.107Z,98162.97
2022-09-13T16:21:18.788Z,98154.97
2022-09-13T16:23:48.572Z,98155.16
2022-09-13T16:26:17.246Z,98159.81
2022-09-13T16:28:45.856Z,98160.44
2022-09-13T16:31:16.723Z,98168.78
2022-09-13T16:33:45.424Z,98161.56
2022-09-13T16:36:14.576Z,98163.81
2022-09-13T16:38:43.253Z,98159.84
2022-09-13T16:41:12.066Z,98157.75
2022-09-13T16:43:41.102Z,98152.47
2022-09-13T16:46:11.753Z,98164.63
2022-09-13T16:48:42.270Z,98161.28
2022-09-13T16:51:14.139Z,98160.97
2022-09-13T16:53:44.610Z,98160.84
2022-09-13T16:56:17.350Z,98167.56
2022-09-13T16:58:47.897Z,98157.94
2022-09-13T17:01:19.443Z,98167.06
2022-09-13T17:03:54.052Z,98171.88
2022-09-13T17:06:26.846Z,98163.34
2022-09-13T17:09:00.981Z,98170.72
2022-09-13T17:11:33.791Z,98159.19
2022-09-13T17:14:05.010Z,98155.03
2022-09-13T17:16:38.150Z,98156.44
2022-09-13T17:19:14.045Z,98150.84
2022-09-13T17:21:44.621Z,98145.38
2022-09-13T17:24:15.097Z,98148.59
2022-09-13T17:26:44.555Z,98148.09
2022-09-13T17:29:14.146Z,98147.16
2022-09-13T17:31:43.928Z,98146.19
2022-09-13T17:34:15.315Z,98156.41
2022-09-13T17:36:50.513Z,98159.25
2022-09-13T17:39:20.705Z,98154.56
2022-09-13T17:41:51.277Z,98161.94
2022-09-13T17:44:20.160Z,98155.81
2022-09-13T17:46:49.210Z,98166.31
2022-09-13T17:49:20.886Z,98163.53
2022-09-13T17:51:51.363Z,98161.25
2022-09-13T17:54:24.793Z,98156.47
2022-09-13T17:56:57.648Z,98155.00
2022-09-13T17:59:28.225Z,98147.97
2022-09-13T18:01:59.661Z,98156.69
2022-09-13T18:04:30.876Z,98157.75
2022-09-13T18:07:00.613Z,98157.59
2022-09-13T18:09:29.909Z,98157.72
2022-09-13T18:11:59.013Z,98153.00
2022-09-13T18:14:28.508Z,98156.28
2022-09-13T18:16:58.056Z,98157.50
2022-09-13T18:19:44.737Z,98151.91
2022-09-13T18:22:16.673Z,98149.72
2022-09-13T18:24:45.785Z,98160.19
2022-09-13T18:27:15.215Z,98147.25
2022-09-13T18:29:47.088Z,98152.19
2022-09-13T18:32:16.652Z,98150.38
2022-09-13T18:34:48.189Z,98150.19
2022-09-13T18:37:18.485Z,98150.91
2022-09-13T18:39:53.713Z,98143.41
2022-09-13T18:42:49.407Z,98147.03
2022-09-13T18:45:40.923Z,98148.34
2022-09-13T18:48:09.916Z,98148.28
2022-09-13T18:50:44.158Z,98157.47
2022-09-13T18:53:15.319Z,98152.47
2022-09-13T18:55:44.074Z,98149.06
2022-09-13T18:58:13.851Z,98155.69
2022-09-13T19:00:43.313Z,98151.59
2022-09-13T19:03:13.084Z,98151.91
2022-09-13T19:05:42.406Z,98157.72
2022-09-13T19:08:13.930Z,98154.31
2022-09-13T19:10:43.477Z,98153.75
2022-09-13T19:13:12.706Z,98150.66
2022-09-13T19:15:42.717Z,98153.06
2022-09-13T19:18:11.567Z,98156.16
2022-09-13T19:20:47.902Z,98154.06
2022-09-13T19:23:18.935Z,98160.59
2022-09-13T19:25:48.877Z,98162.28
2022-09-13T19:28:17.650Z,98160.69
2022-09-13T19:30:50.038Z,98159.19
2022-09-13T19:33:20.294Z,98157.84
2022-09-13T19:35:49.434Z,98170.09
2022-09-13T19:38:19.816Z,98171.69
2022-09-13T19:40:58.142Z,98188.13
2022-09-13T19:43:30.083Z,98184.75
2022-09-13T19:46:01.187Z,98181.34
2022-09-13T19:48:39.486Z,98186.13
2022-09-13T19:51:36.137Z,98178.72
2022-09-13T19:54:08.333Z,98182.53
2022-09-13T19:58:07.689Z,98184.66
2022-09-13T20:00:39.508Z,98177.28
2022-09-13T20:03:08.875Z,98188.72
2022-09-13T20:05:39.003Z,98181.72
2022-09-13T20:08:08.258Z,98183.81
2022-09-13T20:10:40.326Z,98193.63
2022-09-13T20:13:08.966Z,98189.41
2022-09-13T20:15:40.293Z,98186.59
2022-09-13T20:18:13.255Z,98183.31
2022-09-13T20:20:43.230Z,98181.00
2022-09-13T20:23:12.208Z,98182.28
2022-09-13T20:25:43.324Z,98174.97
2022-09-13T20:28:12.515Z,98183.88
2022-09-13T20:30:42.378Z,98187.50
2022-09-13T20:33:11.650Z,98185.31
2022-09-13T20:35:41.454Z,98181.31
2022-09-13T20:38:10.281Z,98187.06
2022-09-13T20:40:39.084Z,98192.66
2022-09-13T20:43:09.109Z,98183.53
2022-09-13T20:45:37.721Z,98190.84
2022-09-13T20:48:06.257Z,98186.63
2022-09-13T20:50:35.206Z,98193.44
2022-09-13T20:53:03.863Z,98198.13
2022-09-13T20:55:32.469Z,98192.97
2022-09-13T20:58:01.665Z,98197.59
2022-09-13T21:00:31.738Z,98193.78
2022-09-13T21:03:00.446Z,98186.19
2022-09-13T21:05:29.065Z,98190.00
2022-09-13T21:08:14.882Z,98182.16
2022-09-13T21:10:43.601Z,98175.28
2022-09-13T21:13:12.269Z,98179.38
2022-09-13T21:15:42.209Z,98187.00
2022-09-13T21:18:10.833Z,98185.66
2022-09-13T21:20:39.446Z,98181.97
2022-09-13T21:23:08.277Z,98189.84
2022-09-13T21:25:37.801Z,98180.94
2022-09-13T21:28:06.620Z,98186.97
2022-09-13T21:30:35.280Z,98184.28
2022-09-13T21:33:05.543Z,98189.25
2022-09-13T21:35:40.436Z,98194.94
2022-09-13T21:38:09.049Z,98190.84
2022-09-13T21:40:37.613Z,98201.06
2022-09-13T21:43:06.761Z,98193.94
2022-09-13T21:45:35.449Z,98201.25
2022-09-13T21:48:06.379Z,98199.53
2022-09-13T21:50:34.993Z,98198.00
2022-09-13T21:53:03.601Z,98194.81
2022-09-13T21:55:32.272Z,98198.38
2022-09-13T21:58:04.014Z,98196.47
2022-09-13T22:00:33.446Z,98202.97
2022-09-13T22:03:02.196Z,98195.91
2022-09-13T22:05:32.471Z,98197.38
2022-09-13T22:08:01.188Z,98203.34
2022-09-13T22:10:29.916Z,98199.34
2022-09-13T22:12:58.519Z,98199.34
2022-09-13T22:15:27.188Z,98193.19
2022-09-13T22:17:55.841Z,98203.19
2022-09-13T22:20:24.396Z,98196.69
2022-09-13T22:22:54.380Z,98205.91
2022-09-13T22:25:23.261Z,98217.88
2022-09-13T22:27:51.860Z,98216.22
2022-09-13T22:30:20.508Z,98210.63
2022-09-13T22:32:49.165Z,98209.22
2022-09-13T22:35:17.966Z,98203.81
2022-09-13T22:37:46.548Z,98205.78
2022-09-13T22:40:16.829Z,98202.53
2022-09-13T22:42:45.443Z,98214.44
2022-09-13T22:45:14.062Z,98219.03
2022-09-13T22:47:42.624Z,98222.00
2022-09-13T22:50:11.425Z,98215.22
2022-09-13T22:52:40.445Z,98217.34
2022-09-13T22:55:09.934Z,98213.63
2022-09-13T22:57:40.029Z,98211.47
2022-09-13T23:00:11.609Z,98208.28
2022-09-13T23:02:42.962Z,98210.44
2022-09-13T23:05:15.297Z,98212.13
2022-09-13T23:07:43.996Z,98206.44
2022-09-13T23:10:12.704Z,98201.84
2022-09-13T23:12:42.838Z,98200.75
2022-09-13T23:15:12.604Z,98201.28
2022-09-13T23:17:41.495Z,98198.34
2022-09-13T23:20:11.401Z,98216.50
2022-09-13T23:22:41.479Z,98216.50
2022-09-13T23:25:10.590Z,98221.34
2022-09-13T23:27:39.761Z,98211.34
2022-09-13T23:30:11.960Z,98212.59
2022-09-13T23:32:40.731Z,98207.38
2022-09-13T23:35:11.699Z,98203.44
2022-09-13T23:37:40.846Z,98196.78
2022-09-13T23:40:10.897Z,98200.59
2022-09-13T23:42:39.735Z,98192.19
2022-09-13T23:45:12.217Z,98193.50
2022-09-13T23:47:41.246Z,98192.25
2022-09-13T23:50:10.964Z,98187.44
2022-09-13T23:52:39.720Z,98185.31
2022-09-13T23:55:09.967Z,98188.84
2022-09-13T23:57:38.994Z,98183.47
